sensor_id;sensor_type;location;lat;lon;timestamp;pressure;altitude;pressure_sealevel;temperature;humidity
16451;BME280;12243;42.708;23.310;2023-02-15T00:00:17;96227.09;;;2.08;95.68
16451;BME280;12243;42.708;23.310;2023-02-15T00:02:44;96235.38;;;2.18;95.47
16451;BME280;12243;42.708;23.310;2023-02-15T00:05:13;96236.50;;;2.09;95.93
16451;BME280;12243;42.708;23.310;2023-02-15T00:07:39;96240.69;;;2.11;95.23
16451;BME280;12243;42.708;23.310;2023-02-15T00:10:07;96240.56;;;2.16;95.12
16451;BME280;12243;42.708;23.310;2023-02-15T00:12:34;96239.69;;;2.17;95.50
16451;BME280;12243;42.708;23.310;2023-02-15T00:15:01;96242.16;;;2.20;95.55
16451;BME280;12243;42.708;23.310;2023-02-15T00:17:28;96247.47;;;2.14;95.58
16451;BME280;12243;42.708;23.310;2023-02-15T00:19:55;96245.84;;;2.11;95.94
16451;BME280;12243;42.708;23.310;2023-02-15T00:22:23;96251.81;;;2.12;96.14
16451;BME280;12243;42.708;23.310;2023-02-15T00:24:50;96235.75;;;2.05;96.47
16451;BME280;12243;42.708;23.310;2023-02-15T00:27:17;96244.50;;;2.00;96.56
16451;BME280;12243;42.708;23.310;2023-02-15T00:29:44;96249.34;;;2.09;96.52
16451;BME280;12243;42.708;23.310;2023-02-15T00:32:11;96252.28;;;1.97;96.97
16451;BME280;12243;42.708;23.310;2023-02-15T00:34:39;96252.13;;;2.03;96.49
16451;BME280;12243;42.708;23.310;2023-02-15T00:37:06;96255.38;;;2.08;96.31
16451;BME280;12243;42.708;23.310;2023-02-15T00:39:34;96253.69;;;2.07;96.07
16451;BME280;12243;42.708;23.310;2023-02-15T00:42:02;96252.88;;;2.05;95.79
16451;BME280;12243;42.708;23.310;2023-02-15T00:44:28;96258.13;;;2.02;96.32
16451;BME280;12243;42.708;23.310;2023-02-15T00:46:55;96247.91;;;2.00;96.37
16451;BME280;12243;42.708;23.310;2023-02-15T00:49:22;96250.50;;;1.99;96.21
16451;BME280;12243;42.708;23.310;2023-02-15T00:51:49;96253.19;;;1.96;96.64
16451;BME280;12243;42.708;23.310;2023-02-15T00:54:16;96256.59;;;1.96;97.17
16451;BME280;12243;42.708;23.310;2023-02-15T00:56:44;96259.06;;;1.99;96.40
16451;BME280;12243;42.708;23.310;2023-02-15T00:59:11;96258.25;;;1.97;96.27
16451;BME280;12243;42.708;23.310;2023-02-15T01:01:38;96248.13;;;1.93;96.44
16451;BME280;12243;42.708;23.310;2023-02-15T01:04:05;96249.00;;;1.91;96.35
16451;BME280;12243;42.708;23.310;2023-02-15T01:06:32;96250.97;;;1.83;97.27
16451;BME280;12243;42.708;23.310;2023-02-15T01:08:59;96247.41;;;1.87;96.82
16451;BME280;12243;42.708;23.310;2023-02-15T01:11:25;96239.84;;;1.83;97.49
16451;BME280;12243;42.708;23.310;2023-02-15T01:13:55;96246.50;;;1.90;96.59
16451;BME280;12243;42.708;23.310;2023-02-15T01:16:23;96237.13;;;1.87;97.05
16451;BME280;12243;42.708;23.310;2023-02-15T01:18:51;96243.59;;;2.01;96.14
16451;BME280;12243;42.708;23.310;2023-02-15T01:21:21;96245.56;;;1.93;96.48
16451;BME280;12243;42.708;23.310;2023-02-15T01:23:48;96245.50;;;1.94;96.84
16451;BME280;12243;42.708;23.310;2023-02-15T01:26:16;96242.38;;;1.84;97.19
16451;BME280;12243;42.708;23.310;2023-02-15T01:28:44;96242.41;;;1.83;96.86
16451;BME280;12243;42.708;23.310;2023-02-15T01:31:14;96240.88;;;1.77;97.30
16451;BME280;12243;42.708;23.310;2023-02-15T01:33:41;96238.28;;;1.77;97.74
16451;BME280;12243;42.708;23.310;2023-02-15T01:36:09;96235.97;;;1.70;98.24
16451;BME280;12243;42.708;23.310;2023-02-15T01:38:37;96234.13;;;1.73;98.24
16451;BME280;12243;42.708;23.310;2023-02-15T01:41:05;96234.97;;;1.74;98.45
16451;BME280;12243;42.708;23.310;2023-02-15T01:43:50;96228.25;;;1.70;98.77
16451;BME280;12243;42.708;23.310;2023-02-15T01:46:22;96225.75;;;1.68;98.34
16451;BME280;12243;42.708;23.310;2023-02-15T01:48:56;96223.13;;;1.70;98.97
16451;BME280;12243;42.708;23.310;2023-02-15T01:51:26;96218.81;;;1.70;98.73
16451;BME280;12243;42.708;23.310;2023-02-15T01:53:59;96215.47;;;1.68;99.17
16451;BME280;12243;42.708;23.310;2023-02-15T01:56:29;96218.03;;;1.68;99.85
16451;BME280;12243;42.708;23.310;2023-02-15T01:59:01;96208.84;;;1.61;99.12
16451;BME280;12243;42.708;23.310;2023-02-15T02:01:31;96210.38;;;1.66;99.05
16451;BME280;12243;42.708;23.310;2023-02-15T02:04:02;96207.69;;;1.71;99.18
16451;BME280;12243;42.708;23.310;2023-02-15T02:06:33;96210.13;;;1.74;99.11
16451;BME280;12243;42.708;23.310;2023-02-15T02:09:05;96214.75;;;1.63;99.37
16451;BME280;12243;42.708;23.310;2023-02-15T02:11:33;96209.50;;;1.67;99.40
16451;BME280;12243;42.708;23.310;2023-02-15T02:14:01;96219.56;;;1.74;99.33
16451;BME280;12243;42.708;23.310;2023-02-15T02:16:34;96223.19;;;1.66;98.65
16451;BME280;12243;42.708;23.310;2023-02-15T02:19:28;96217.16;;;1.69;99.41
16451;BME280;12243;42.708;23.310;2023-02-15T02:22:27;96227.41;;;1.69;99.39
16451;BME280;12243;42.708;23.310;2023-02-15T02:25:34;96233.13;;;1.79;99.00
16451;BME280;12243;42.708;23.310;2023-02-15T02:28:20;96232.47;;;1.72;98.73
16451;BME280;12243;42.708;23.310;2023-02-15T02:31:20;96228.16;;;1.73;99.62
16451;BME280;12243;42.708;23.310;2023-02-15T02:34:01;96232.69;;;1.64;99.00
16451;BME280;12243;42.708;23.310;2023-02-15T02:36:34;96237.84;;;1.63;99.51
16451;BME280;12243;42.708;23.310;2023-02-15T02:39:13;96231.72;;;1.69;100.00
16451;BME280;12243;42.708;23.310;2023-02-15T02:41:51;96227.66;;;1.61;99.28
16451;BME280;12243;42.708;23.310;2023-02-15T02:44:24;96231.22;;;1.56;99.32
16451;BME280;12243;42.708;23.310;2023-02-15T02:46:56;96231.06;;;1.62;99.18
16451;BME280;12243;42.708;23.310;2023-02-15T02:49:34;96229.28;;;1.64;98.70
16451;BME280;12243;42.708;23.310;2023-02-15T02:52:03;96227.59;;;1.63;99.36
16451;BME280;12243;42.708;23.310;2023-02-15T02:54:33;96230.44;;;1.54;99.07
16451;BME280;12243;42.708;23.310;2023-02-15T02:57:03;96240.34;;;1.66;98.91
16451;BME280;12243;42.708;23.310;2023-02-15T02:59:33;96248.28;;;1.57;99.23
16451;BME280;12243;42.708;23.310;2023-02-15T03:02:06;96241.41;;;1.59;99.49
16451;BME280;12243;42.708;23.310;2023-02-15T03:04:41;96241.91;;;1.72;99.16
16451;BME280;12243;42.708;23.310;2023-02-15T03:07:12;96240.94;;;1.74;98.96
16451;BME280;12243;42.708;23.310;2023-02-15T03:09:43;96245.91;;;1.80;99.09
16451;BME280;12243;42.708;23.310;2023-02-15T03:12:14;96246.91;;;1.76;99.51
16451;BME280;12243;42.708;23.310;2023-02-15T03:14:48;96257.91;;;1.81;99.80
16451;BME280;12243;42.708;23.310;2023-02-15T03:17:17;96247.16;;;1.97;99.60
16451;BME280;12243;42.708;23.310;2023-02-15T03:19:51;96247.06;;;2.00;99.02
16451;BME280;12243;42.708;23.310;2023-02-15T03:22:23;96248.75;;;2.01;98.93
16451;BME280;12243;42.708;23.310;2023-02-15T03:24:56;96243.41;;;2.07;98.47
16451;BME280;12243;42.708;23.310;2023-02-15T03:27:31;96241.25;;;2.21;97.60
16451;BME280;12243;42.708;23.310;2023-02-15T03:30:02;96250.72;;;2.21;97.95
16451;BME280;12243;42.708;23.310;2023-02-15T03:32:30;96248.38;;;2.13;97.95
16451;BME280;12243;42.708;23.310;2023-02-15T03:35:01;96255.84;;;2.21;98.19
16451;BME280;12243;42.708;23.310;2023-02-15T03:37:32;96257.44;;;2.25;98.57
16451;BME280;12243;42.708;23.310;2023-02-15T03:40:03;96253.88;;;2.29;98.29
16451;BME280;12243;42.708;23.310;2023-02-15T03:42:51;96248.66;;;2.32;97.61
16451;BME280;12243;42.708;23.310;2023-02-15T03:45:24;96247.63;;;2.37;98.05
16451;BME280;12243;42.708;23.310;2023-02-15T03:47:55;96241.50;;;2.42;97.42
16451;BME280;12243;42.708;23.310;2023-02-15T03:50:26;96247.63;;;2.37;97.46
16451;BME280;12243;42.708;23.310;2023-02-15T03:53:14;96244.25;;;2.35;98.06
16451;BME280;12243;42.708;23.310;2023-02-15T03:55:46;96244.25;;;2.35;97.48
16451;BME280;12243;42.708;23.310;2023-02-15T03:58:13;96249.19;;;2.42;97.75
16451;BME280;12243;42.708;23.310;2023-02-15T04:00:59;96254.25;;;2.45;97.81
16451;BME280;12243;42.708;23.310;2023-02-15T04:03:45;96247.31;;;2.47;97.31
16451;BME280;12243;42.708;23.310;2023-02-15T04:06:16;96248.06;;;2.50;97.27
16451;BME280;12243;42.708;23.310;2023-02-15T04:08:43;96255.66;;;2.55;97.52
16451;BME280;12243;42.708;23.310;2023-02-15T04:11:27;96259.81;;;2.57;97.22
16451;BME280;12243;42.708;23.310;2023-02-15T04:13:54;96260.78;;;2.55;97.73
16451;BME280;12243;42.708;23.310;2023-02-15T04:16:22;96268.06;;;2.69;96.40
16451;BME280;12243;42.708;23.310;2023-02-15T04:18:48;96265.41;;;2.70;96.41
16451;BME280;12243;42.708;23.310;2023-02-15T04:21:34;96265.63;;;2.64;96.68
16451;BME280;12243;42.708;23.310;2023-02-15T04:24:18;96271.94;;;2.80;96.13
16451;BME280;12243;42.708;23.310;2023-02-15T04:27:03;96283.44;;;2.70;96.27
16451;BME280;12243;42.708;23.310;2023-02-15T04:29:31;96285.19;;;2.68;96.54
16451;BME280;12243;42.708;23.310;2023-02-15T04:32:01;96291.69;;;2.80;96.35
16451;BME280;12243;42.708;23.310;2023-02-15T04:34:28;96284.84;;;2.79;96.64
16451;BME280;12243;42.708;23.310;2023-02-15T04:36:56;96296.00;;;2.79;96.23
16451;BME280;12243;42.708;23.310;2023-02-15T04:39:23;96291.28;;;2.92;96.07
16451;BME280;12243;42.708;23.310;2023-02-15T04:41:49;96296.41;;;2.92;95.86
16451;BME280;12243;42.708;23.310;2023-02-15T04:44:16;96298.97;;;2.94;96.03
16451;BME280;12243;42.708;23.310;2023-02-15T04:46:43;96290.25;;;2.98;95.21
16451;BME280;12243;42.708;23.310;2023-02-15T04:49:10;96291.09;;;2.98;95.56
16451;BME280;12243;42.708;23.310;2023-02-15T04:51:37;96293.09;;;2.89;95.76
16451;BME280;12243;42.708;23.310;2023-02-15T04:54:05;96299.44;;;3.05;96.00
16451;BME280;12243;42.708;23.310;2023-02-15T04:56:32;96304.00;;;2.97;95.34
16451;BME280;12243;42.708;23.310;2023-02-15T04:59:00;96301.44;;;2.97;95.22
16451;BME280;12243;42.708;23.310;2023-02-15T05:01:27;96311.28;;;3.10;95.23
16451;BME280;12243;42.708;23.310;2023-02-15T05:03:54;96306.88;;;3.14;94.86
16451;BME280;12243;42.708;23.310;2023-02-15T05:06:21;96301.72;;;3.14;94.36
16451;BME280;12243;42.708;23.310;2023-02-15T05:08:48;96302.59;;;3.13;94.89
16451;BME280;12243;42.708;23.310;2023-02-15T05:11:17;96306.22;;;3.07;94.71
16451;BME280;12243;42.708;23.310;2023-02-15T05:13:44;96306.31;;;3.04;94.67
16451;BME280;12243;42.708;23.310;2023-02-15T05:16:11;96322.69;;;3.02;95.11
16451;BME280;12243;42.708;23.310;2023-02-15T05:18:38;96319.94;;;3.08;94.11
16451;BME280;12243;42.708;23.310;2023-02-15T05:21:04;96322.78;;;2.99;95.04
16451;BME280;12243;42.708;23.310;2023-02-15T05:23:31;96325.25;;;3.03;95.64
16451;BME280;12243;42.708;23.310;2023-02-15T05:25:58;96326.81;;;3.07;94.92
16451;BME280;12243;42.708;23.310;2023-02-15T05:28:44;96324.25;;;3.07;94.95
16451;BME280;12243;42.708;23.310;2023-02-15T05:31:13;96332.81;;;3.08;94.87
16451;BME280;12243;42.708;23.310;2023-02-15T05:33:41;96333.69;;;3.07;94.97
16451;BME280;12243;42.708;23.310;2023-02-15T05:36:08;96333.84;;;3.02;94.98
16451;BME280;12243;42.708;23.310;2023-02-15T05:38:35;96337.94;;;3.08;95.43
16451;BME280;12243;42.708;23.310;2023-02-15T05:41:03;96346.34;;;3.13;95.27
16451;BME280;12243;42.708;23.310;2023-02-15T05:43:31;96342.69;;;3.20;95.08
16451;BME280;12243;42.708;23.310;2023-02-15T05:46:00;96342.28;;;3.32;94.36
16451;BME280;12243;42.708;23.310;2023-02-15T05:48:27;96340.59;;;3.31;93.84
16451;BME280;12243;42.708;23.310;2023-02-15T05:50:58;96337.22;;;3.29;93.83
16451;BME280;12243;42.708;23.310;2023-02-15T05:53:25;96343.28;;;3.28;93.99
16451;BME280;12243;42.708;23.310;2023-02-15T05:55:53;96346.44;;;3.37;92.87
16451;BME280;12243;42.708;23.310;2023-02-15T05:58:24;96342.19;;;3.36;93.05
16451;BME280;12243;42.708;23.310;2023-02-15T06:00:52;96344.13;;;3.29;92.82
16451;BME280;12243;42.708;23.310;2023-02-15T06:03:21;96347.44;;;3.32;93.09
16451;BME280;12243;42.708;23.310;2023-02-15T06:05:48;96347.34;;;3.36;92.92
16451;BME280;12243;42.708;23.310;2023-02-15T06:08:15;96345.75;;;3.31;93.41
16451;BME280;12243;42.708;23.310;2023-02-15T06:10:42;96342.97;;;3.38;92.29
16451;BME280;12243;42.708;23.310;2023-02-15T06:13:09;96344.88;;;3.31;93.68
16451;BME280;12243;42.708;23.310;2023-02-15T06:15:36;96351.50;;;3.38;93.30
16451;BME280;12243;42.708;23.310;2023-02-15T06:18:03;96346.50;;;3.35;92.66
16451;BME280;12243;42.708;23.310;2023-02-15T06:20:31;96354.91;;;3.40;92.68
16451;BME280;12243;42.708;23.310;2023-02-15T06:22:58;96356.78;;;3.35;92.53
16451;BME280;12243;42.708;23.310;2023-02-15T06:25:25;96352.47;;;3.36;92.37
16451;BME280;12243;42.708;23.310;2023-02-15T06:27:52;96358.38;;;3.39;92.79
16451;BME280;12243;42.708;23.310;2023-02-15T06:30:19;96349.75;;;3.40;92.55
16451;BME280;12243;42.708;23.310;2023-02-15T06:32:47;96356.19;;;3.52;91.93
16451;BME280;12243;42.708;23.310;2023-02-15T06:35:14;96352.53;;;3.59;92.50
16451;BME280;12243;42.708;23.310;2023-02-15T06:37:45;96348.72;;;3.69;91.88
16451;BME280;12243;42.708;23.310;2023-02-15T06:40:12;96347.63;;;3.76;91.05
16451;BME280;12243;42.708;23.310;2023-02-15T06:42:39;96346.66;;;3.80;90.90
16451;BME280;12243;42.708;23.310;2023-02-15T06:45:08;96350.56;;;3.91;90.06
16451;BME280;12243;42.708;23.310;2023-02-15T06:47:36;96350.44;;;3.94;89.74
16451;BME280;12243;42.708;23.310;2023-02-15T06:50:03;96346.75;;;4.01;89.83
16451;BME280;12243;42.708;23.310;2023-02-15T06:52:30;96349.78;;;4.12;89.07
16451;BME280;12243;42.708;23.310;2023-02-15T06:54:58;96347.97;;;4.14;89.45
16451;BME280;12243;42.708;23.310;2023-02-15T06:57:25;96347.31;;;4.33;89.11
16451;BME280;12243;42.708;23.310;2023-02-15T06:59:52;96352.13;;;4.42;88.85
16451;BME280;12243;42.708;23.310;2023-02-15T07:02:19;96355.91;;;4.55;88.26
16451;BME280;12243;42.708;23.310;2023-02-15T07:04:46;96352.75;;;4.70;85.96
16451;BME280;12243;42.708;23.310;2023-02-15T07:07:13;96355.88;;;4.78;85.94
16451;BME280;12243;42.708;23.310;2023-02-15T07:09:40;96353.66;;;4.69;85.29
16451;BME280;12243;42.708;23.310;2023-02-15T07:12:09;96350.88;;;4.52;86.36
16451;BME280;12243;42.708;23.310;2023-02-15T07:14:54;96347.84;;;4.64;86.00
16451;BME280;12243;42.708;23.310;2023-02-15T07:17:20;96352.09;;;4.65;86.03
16451;BME280;12243;42.708;23.310;2023-02-15T07:19:47;96359.34;;;4.77;85.40
16451;BME280;12243;42.708;23.310;2023-02-15T07:22:14;96357.19;;;4.67;84.00
16451;BME280;12243;42.708;23.310;2023-02-15T07:24:41;96366.66;;;4.66;84.59
16451;BME280;12243;42.708;23.310;2023-02-15T07:27:09;96368.09;;;4.51;85.02
16451;BME280;12243;42.708;23.310;2023-02-15T07:29:36;96365.81;;;4.44;85.03
16451;BME280;12243;42.708;23.310;2023-02-15T07:32:03;96361.00;;;4.35;86.15
16451;BME280;12243;42.708;23.310;2023-02-15T07:34:30;96361.59;;;4.41;85.57
16451;BME280;12243;42.708;23.310;2023-02-15T07:36:57;96353.81;;;4.43;86.40
16451;BME280;12243;42.708;23.310;2023-02-15T07:39:24;96358.84;;;4.46;85.18
16451;BME280;12243;42.708;23.310;2023-02-15T07:41:51;96350.63;;;4.36;86.53
16451;BME280;12243;42.708;23.310;2023-02-15T07:44:20;96343.13;;;4.52;85.82
16451;BME280;12243;42.708;23.310;2023-02-15T07:46:47;96349.75;;;4.59;84.86
16451;BME280;12243;42.708;23.310;2023-02-15T07:49:14;96351.28;;;4.63;84.91
16451;BME280;12243;42.708;23.310;2023-02-15T07:51:41;96348.19;;;4.55;84.98
16451;BME280;12243;42.708;23.310;2023-02-15T07:54:08;96353.88;;;4.63;85.71
16451;BME280;12243;42.708;23.310;2023-02-15T07:56:35;96346.84;;;4.67;84.93
16451;BME280;12243;42.708;23.310;2023-02-15T07:59:01;96338.41;;;4.63;85.13
16451;BME280;12243;42.708;23.310;2023-02-15T08:01:33;96342.41;;;4.70;84.71
16451;BME280;12243;42.708;23.310;2023-02-15T08:04:01;96349.75;;;4.81;84.48
16451;BME280;12243;42.708;23.310;2023-02-15T08:06:29;96343.22;;;4.72;84.61
16451;BME280;12243;42.708;23.310;2023-02-15T08:08:57;96338.97;;;4.71;84.38
16451;BME280;12243;42.708;23.310;2023-02-15T08:11:25;96346.25;;;4.60;84.32
16451;BME280;12243;42.708;23.310;2023-02-15T08:13:56;96350.69;;;4.57;84.39
16451;BME280;12243;42.708;23.310;2023-02-15T08:16:27;96353.72;;;4.68;85.09
16451;BME280;12243;42.708;23.310;2023-02-15T08:18:56;96341.22;;;4.79;83.77
16451;BME280;12243;42.708;23.310;2023-02-15T08:21:25;96356.72;;;4.79;82.61
16451;BME280;12243;42.708;23.310;2023-02-15T08:23:53;96353.06;;;4.85;82.44
16451;BME280;12243;42.708;23.310;2023-02-15T08:26:20;96355.16;;;4.97;81.42
16451;BME280;12243;42.708;23.310;2023-02-15T08:28:47;96354.66;;;4.87;82.27
16451;BME280;12243;42.708;23.310;2023-02-15T08:31:15;96355.03;;;5.00;82.32
16451;BME280;12243;42.708;23.310;2023-02-15T08:33:43;96352.81;;;5.13;81.54
16451;BME280;12243;42.708;23.310;2023-02-15T08:36:14;96348.03;;;5.24;81.39
16451;BME280;12243;42.708;23.310;2023-02-15T08:38:41;96348.69;;;5.29;79.92
16451;BME280;12243;42.708;23.310;2023-02-15T08:41:10;96348.75;;;5.28;80.36
16451;BME280;12243;42.708;23.310;2023-02-15T08:43:37;96357.66;;;5.20;79.91
16451;BME280;12243;42.708;23.310;2023-02-15T08:46:05;96348.16;;;5.21;80.04
16451;BME280;12243;42.708;23.310;2023-02-15T08:48:32;96358.97;;;5.09;79.52
16451;BME280;12243;42.708;23.310;2023-02-15T08:51:04;96354.41;;;5.15;79.64
16451;BME280;12243;42.708;23.310;2023-02-15T08:53:33;96351.72;;;5.39;79.44
16451;BME280;12243;42.708;23.310;2023-02-15T08:56:00;96355.34;;;5.35;78.31
16451;BME280;12243;42.708;23.310;2023-02-15T08:58:28;96352.38;;;5.44;78.06
16451;BME280;12243;42.708;23.310;2023-02-15T09:00:56;96356.78;;;5.62;77.11
16451;BME280;12243;42.708;23.310;2023-02-15T09:03:23;96362.97;;;5.58;76.95
16451;BME280;12243;42.708;23.310;2023-02-15T09:05:50;96362.00;;;5.61;77.72
16451;BME280;12243;42.708;23.310;2023-02-15T09:08:17;96360.91;;;5.87;76.80
16451;BME280;12243;42.708;23.310;2023-02-15T09:10:45;96353.31;;;6.03;75.49
16451;BME280;12243;42.708;23.310;2023-02-15T09:13:12;96347.53;;;6.16;74.72
16451;BME280;12243;42.708;23.310;2023-02-15T09:15:39;96350.00;;;6.19;74.58
16451;BME280;12243;42.708;23.310;2023-02-15T09:18:06;96353.31;;;6.03;75.04
16451;BME280;12243;42.708;23.310;2023-02-15T09:20:35;96349.25;;;6.17;73.95
16451;BME280;12243;42.708;23.310;2023-02-15T09:23:02;96342.00;;;6.05;73.99
16451;BME280;12243;42.708;23.310;2023-02-15T09:25:29;96351.53;;;6.24;75.26
16451;BME280;12243;42.708;23.310;2023-02-15T09:27:57;96347.63;;;6.34;73.62
16451;BME280;12243;42.708;23.310;2023-02-15T09:30:24;96353.53;;;6.17;73.89
16451;BME280;12243;42.708;23.310;2023-02-15T09:32:51;96352.09;;;6.11;74.65
16451;BME280;12243;42.708;23.310;2023-02-15T09:35:18;96358.88;;;6.33;74.61
16451;BME280;12243;42.708;23.310;2023-02-15T09:37:45;96355.31;;;6.54;73.01
16451;BME280;12243;42.708;23.310;2023-02-15T09:40:13;96354.91;;;6.63;72.83
16451;BME280;12243;42.708;23.310;2023-02-15T09:43:00;96347.28;;;6.60;73.34
16451;BME280;12243;42.708;23.310;2023-02-15T09:45:46;96355.53;;;6.68;72.43
16451;BME280;12243;42.708;23.310;2023-02-15T09:48:38;96352.66;;;6.75;72.38
16451;BME280;12243;42.708;23.310;2023-02-15T09:51:24;96345.47;;;6.99;72.22
16451;BME280;12243;42.708;23.310;2023-02-15T09:54:09;96348.63;;;7.05;70.44
16451;BME280;12243;42.708;23.310;2023-02-15T09:56:47;96350.09;;;6.92;70.46
16451;BME280;12243;42.708;23.310;2023-02-15T09:59:22;96349.63;;;6.84;71.41
16451;BME280;12243;42.708;23.310;2023-02-15T10:01:58;96347.56;;;6.54;71.53
16451;BME280;12243;42.708;23.310;2023-02-15T10:04:53;96336.44;;;6.52;72.35
16451;BME280;12243;42.708;23.310;2023-02-15T10:07:35;96336.28;;;6.55;72.10
16451;BME280;12243;42.708;23.310;2023-02-15T10:10:15;96335.31;;;6.58;72.02
16451;BME280;12243;42.708;23.310;2023-02-15T10:12:55;96336.97;;;6.59;71.49
16451;BME280;12243;42.708;23.310;2023-02-15T10:15:31;96331.06;;;6.57;71.59
16451;BME280;12243;42.708;23.310;2023-02-15T10:18:14;96332.53;;;6.80;70.86
16451;BME280;12243;42.708;23.310;2023-02-15T10:20:50;96334.84;;;6.86;70.76
16451;BME280;12243;42.708;23.310;2023-02-15T10:23:34;96332.13;;;6.89;70.05
16451;BME280;12243;42.708;23.310;2023-02-15T10:26:11;96324.66;;;7.00;70.24
16451;BME280;12243;42.708;23.310;2023-02-15T10:28:46;96317.69;;;7.20;68.79
16451;BME280;12243;42.708;23.310;2023-02-15T10:31:24;96319.28;;;7.05;69.89
16451;BME280;12243;42.708;23.310;2023-02-15T10:34:03;96318.59;;;7.01;69.97
16451;BME280;12243;42.708;23.310;2023-02-15T10:36:52;96312.63;;;6.99;70.30
16451;BME280;12243;42.708;23.310;2023-02-15T10:39:28;96312.19;;;6.72;71.18
16451;BME280;12243;42.708;23.310;2023-02-15T10:42:07;96308.97;;;6.86;70.49
16451;BME280;12243;42.708;23.310;2023-02-15T10:44:48;96307.16;;;6.88;69.96
16451;BME280;12243;42.708;23.310;2023-02-15T10:47:48;96299.53;;;6.85;69.95
16451;BME280;12243;42.708;23.310;2023-02-15T10:50:28;96305.47;;;6.87;71.49
16451;BME280;12243;42.708;23.310;2023-02-15T10:53:29;96301.91;;;7.24;69.71
16451;BME280;12243;42.708;23.310;2023-02-15T10:56:07;96292.84;;;6.98;69.75
16451;BME280;12243;42.708;23.310;2023-02-15T10:58:45;96305.91;;;6.78;70.89
16451;BME280;12243;42.708;23.310;2023-02-15T11:01:19;96295.59;;;6.40;70.78
16451;BME280;12243;42.708;23.310;2023-02-15T11:04:10;96296.59;;;6.18;72.13
16451;BME280;12243;42.708;23.310;2023-02-15T11:06:46;96293.66;;;6.07;73.00
16451;BME280;12243;42.708;23.310;2023-02-15T11:09:18;96301.06;;;6.34;73.25
16451;BME280;12243;42.708;23.310;2023-02-15T11:11:49;96290.06;;;6.66;70.48
16451;BME280;12243;42.708;23.310;2023-02-15T11:14:22;96291.59;;;6.71;71.04
16451;BME280;12243;42.708;23.310;2023-02-15T11:16:52;96288.03;;;6.90;70.56
16451;BME280;12243;42.708;23.310;2023-02-15T11:19:25;96295.13;;;6.87;70.27
16451;BME280;12243;42.708;23.310;2023-02-15T11:22:01;96309.09;;;6.83;70.09
16451;BME280;12243;42.708;23.310;2023-02-15T11:24:33;96290.78;;;6.87;69.87
16451;BME280;12243;42.708;23.310;2023-02-15T11:27:10;96283.81;;;6.71;70.18
16451;BME280;12243;42.708;23.310;2023-02-15T11:29:49;96294.16;;;6.71;70.11
16451;BME280;12243;42.708;23.310;2023-02-15T11:32:20;96297.28;;;6.41;71.56
16451;BME280;12243;42.708;23.310;2023-02-15T11:34:54;96286.78;;;6.06;72.64
16451;BME280;12243;42.708;23.310;2023-02-15T11:37:27;96291.34;;;5.81;73.75
16451;BME280;12243;42.708;23.310;2023-02-15T11:39:55;96288.78;;;5.81;74.48
16451;BME280;12243;42.708;23.310;2023-02-15T11:42:23;96281.00;;;5.81;73.95
16451;BME280;12243;42.708;23.310;2023-02-15T11:44:57;96286.38;;;5.96;73.39
16451;BME280;12243;42.708;23.310;2023-02-15T11:47:25;96278.75;;;5.93;73.29
16451;BME280;12243;42.708;23.310;2023-02-15T11:49:54;96268.63;;;6.08;73.65
16451;BME280;12243;42.708;23.310;2023-02-15T11:52:21;96257.94;;;6.15;72.71
16451;BME280;12243;42.708;23.310;2023-02-15T11:54:50;96257.84;;;6.36;72.43
16451;BME280;12243;42.708;23.310;2023-02-15T11:57:20;96262.78;;;6.59;70.84
16451;BME280;12243;42.708;23.310;2023-02-15T11:59:52;96275.88;;;6.56;71.05
16451;BME280;12243;42.708;23.310;2023-02-15T12:02:22;96258.41;;;6.42;71.64
16451;BME280;12243;42.708;23.310;2023-02-15T12:04:56;96255.88;;;6.41;71.74
16451;BME280;12243;42.708;23.310;2023-02-15T12:07:27;96253.19;;;6.61;70.72
16451;BME280;12243;42.708;23.310;2023-02-15T12:10:00;96250.06;;;6.72;70.14
16451;BME280;12243;42.708;23.310;2023-02-15T12:12:31;96249.66;;;6.62;70.04
16451;BME280;12243;42.708;23.310;2023-02-15T12:14:59;96237.91;;;6.74;70.96
16451;BME280;12243;42.708;23.310;2023-02-15T12:17:28;96246.34;;;6.60;70.18
16451;BME280;12243;42.708;23.310;2023-02-15T12:20:00;96237.09;;;6.55;70.62
16451;BME280;12243;42.708;23.310;2023-02-15T12:22:30;96236.41;;;6.51;70.48
16451;BME280;12243;42.708;23.310;2023-02-15T12:25:00;96239.41;;;6.61;70.66
16451;BME280;12243;42.708;23.310;2023-02-15T12:27:29;96240.94;;;6.65;70.76
16451;BME280;12243;42.708;23.310;2023-02-15T12:29:59;96242.09;;;6.77;70.54
16451;BME280;12243;42.708;23.310;2023-02-15T12:32:30;96231.75;;;6.77;70.06
16451;BME280;12243;42.708;23.310;2023-02-15T12:35:06;96232.78;;;6.90;70.81
16451;BME280;12243;42.708;23.310;2023-02-15T12:37:35;96224.28;;;6.88;69.87
16451;BME280;12243;42.708;23.310;2023-02-15T12:40:19;96217.50;;;6.85;69.72
16451;BME280;12243;42.708;23.310;2023-02-15T12:42:46;96212.00;;;6.74;70.10
16451;BME280;12243;42.708;23.310;2023-02-15T12:45:25;96207.69;;;6.92;69.48
16451;BME280;12243;42.708;23.310;2023-02-15T12:48:13;96205.38;;;6.86;69.45
16451;BME280;12243;42.708;23.310;2023-02-15T12:50:43;96201.72;;;6.90;69.67
16451;BME280;12243;42.708;23.310;2023-02-15T12:53:14;96201.44;;;6.96;69.35
16451;BME280;12243;42.708;23.310;2023-02-15T12:55:52;96201.28;;;6.99;68.46
16451;BME280;12243;42.708;23.310;2023-02-15T12:58:21;96202.50;;;7.09;68.16
16451;BME280;12243;42.708;23.310;2023-02-15T13:01:04;96195.41;;;7.13;68.28
16451;BME280;12243;42.708;23.310;2023-02-15T13:03:38;96193.19;;;7.23;67.53
16451;BME280;12243;42.708;23.310;2023-02-15T13:06:06;96191.97;;;7.12;67.17
16451;BME280;12243;42.708;23.310;2023-02-15T13:08:35;96190.75;;;7.02;67.92
16451;BME280;12243;42.708;23.310;2023-02-15T13:11:07;96189.53;;;6.92;68.65
16451;BME280;12243;42.708;23.310;2023-02-15T13:13:45;96189.78;;;6.87;68.87
16451;BME280;12243;42.708;23.310;2023-02-15T13:16:14;96184.13;;;6.97;68.46
16451;BME280;12243;42.708;23.310;2023-02-15T13:18:43;96176.28;;;7.15;68.60
16451;BME280;12243;42.708;23.310;2023-02-15T13:21:15;96176.44;;;7.12;67.26